Time;durP1;ratioP1;P1;durP2;ratioP2;P2;SDS_P1;SDS_P2;PMS_P1;PMS_P2;Temp;Humidity;BMP_temperature;BMP_pressure;BME280_temperature;BME280_humidity;BME280_pressure;Samples;Min_cycle;Max_cycle;Signal;HPM_P1;HPM_P2
2022/09/02 00:01:11;;;;;;;4.57;2.90;;;;;;;;;;5069856;28;20086;-76
2022/09/02 00:03:37;;;;;;;6.55;3.28;;;;;;;;;;5078113;28;20041;-76
2022/09/02 00:06:04;;;;;;;4.43;3.03;;;;;;;;;;5065567;28;20159;-76
2022/09/02 00:08:30;;;;;;;8.10;4.43;;;;;;;;;;5066813;28;20032;-76
2022/09/02 00:10:57;;;;;;;5.80;2.70;;;;;;;;;;5068438;28;20084;-75
2022/09/02 00:13:23;;;;;;;6.85;2.75;;;;;;;;;;5069367;28;20035;-75
2022/09/02 00:15:50;;;;;;;4.20;2.85;;;;;;;;;;5065421;28;20029;-76
2022/09/02 00:18:17;;;;;;;8.75;3.22;;;;;;;;;;5069011;28;20070;-76
2022/09/02 00:20:44;;;;;;;5.72;2.90;;;;;;;;;;5069302;28;20017;-77
2022/09/02 00:23:11;;;;;;;5.72;3.05;;;;;;;;;;5067534;28;20032;-76
2022/09/02 00:25:38;;;;;;;4.60;2.60;;;;;;;;;;5076861;28;20082;-75
2022/09/02 00:28:05;;;;;;;8.75;3.15;;;;;;;;;;5065226;28;20461;-76
2022/09/02 00:30:32;;;;;;;5.88;3.67;;;;;;;;;;5062445;28;20020;-76
2022/09/02 00:32:58;;;;;;;6.07;3.10;;;;;;;;;;5083192;28;20042;-76
2022/09/02 00:35:24;;;;;;;4.68;3.05;;;;;;;;;;5065365;28;20031;-76
2022/09/02 00:37:51;;;;;;;4.47;3.15;;;;;;;;;;5065005;28;20119;-76
2022/09/02 00:40:18;;;;;;;6.63;3.22;;;;;;;;;;5062623;28;20035;-75
2022/09/02 00:42:44;;;;;;;5.13;3.00;;;;;;;;;;5066017;28;20021;-76
2022/09/02 00:45:11;;;;;;;7.50;3.15;;;;;;;;;;5071045;28;20112;-76
2022/09/02 00:47:37;;;;;;;7.32;3.13;;;;;;;;;;5062817;28;20025;-76
2022/09/02 00:50:06;;;;;;;4.97;3.30;;;;;;;;;;5068085;28;20119;-76
2022/09/02 00:52:34;;;;;;;6.03;2.95;;;;;;;;;;5069057;28;20056;-76
2022/09/02 00:55:03;;;;;;;5.50;3.13;;;;;;;;;;5065312;28;20021;-75
2022/09/02 00:57:36;;;;;;;5.18;3.17;;;;;;;;;;5067964;28;20031;-75
2022/09/02 01:00:05;;;;;;;5.60;3.28;;;;;;;;;;5066338;28;20032;-75
2022/09/02 01:02:31;;;;;;;5.43;3.30;;;;;;;;;;5067837;28;20044;-76
2022/09/02 01:04:59;;;;;;;6.95;3.85;;;;;;;;;;5069694;28;20023;-76
2022/09/02 01:07:28;;;;;;;7.57;3.45;;;;;;;;;;5068556;28;20036;-76
2022/09/02 01:09:54;;;;;;;6.88;3.83;;;;;;;;;;5075631;28;20033;-76
2022/09/02 01:12:21;;;;;;;7.93;4.22;;;;;;;;;;5065960;28;20020;-74
2022/09/02 01:14:47;;;;;;;8.98;4.07;;;;;;;;;;5067578;28;20120;-75
2022/09/02 01:17:18;;;;;;;4.97;3.90;;;;;;;;;;5066239;28;20497;-75
2022/09/02 01:19:48;;;;;;;6.47;3.75;;;;;;;;;;5064342;28;20116;-76
2022/09/02 01:22:22;;;;;;;9.38;3.90;;;;;;;;;;5063666;28;20355;-76
2022/09/02 01:24:48;;;;;;;5.93;4.10;;;;;;;;;;5069343;28;20040;-75
2022/09/02 01:27:19;;;;;;;9.05;5.25;;;;;;;;;;5068305;28;20064;-75
2022/09/02 01:29:46;;;;;;;7.78;4.05;;;;;;;;;;5081425;28;20115;-75
2022/09/02 01:32:12;;;;;;;6.00;4.13;;;;;;;;;;5064526;28;20024;-76
2022/09/02 01:34:38;;;;;;;8.95;3.92;;;;;;;;;;5061944;28;20037;-75
2022/09/02 01:37:04;;;;;;;7.60;3.58;;;;;;;;;;5047764;28;20566;-76
2022/09/02 01:39:31;;;;;;;8.32;3.78;;;;;;;;;;5065770;28;20020;-75
2022/09/02 01:41:59;;;;;;;4.78;3.67;;;;;;;;;;5067171;28;20032;-75
2022/09/02 01:44:26;;;;;;;6.18;3.78;;;;;;;;;;5062351;28;20035;-75
2022/09/02 01:46:52;;;;;;;7.15;3.63;;;;;;;;;;5067604;28;20113;-75
2022/09/02 01:49:19;;;;;;;5.53;3.45;;;;;;;;;;5058238;28;20128;-74
2022/09/02 01:51:45;;;;;;;9.90;3.70;;;;;;;;;;5066955;28;20170;-74
2022/09/02 01:54:11;;;;;;;8.38;3.90;;;;;;;;;;5066004;28;20033;-75
2022/09/02 01:56:37;;;;;;;6.80;3.80;;;;;;;;;;5070328;28;20039;-75
2022/09/02 01:59:06;;;;;;;4.35;3.38;;;;;;;;;;5061606;28;20081;-76
2022/09/02 02:01:33;;;;;;;5.63;3.85;;;;;;;;;;5068994;28;20354;-74
2022/09/02 02:04:00;;;;;;;4.70;3.33;;;;;;;;;;5069845;28;20026;-76
2022/09/02 02:06:26;;;;;;;6.60;3.22;;;;;;;;;;5071785;28;20032;-75
2022/09/02 02:08:53;;;;;;;4.13;3.15;;;;;;;;;;5069471;28;20031;-75
2022/09/02 02:11:21;;;;;;;5.75;3.28;;;;;;;;;;5066976;28;20499;-76
2022/09/02 02:13:47;;;;;;;4.55;3.13;;;;;;;;;;5067699;28;20032;-75
2022/09/02 02:16:13;;;;;;;5.45;3.78;;;;;;;;;;5081482;28;20028;-76
2022/09/02 02:18:40;;;;;;;4.30;3.13;;;;;;;;;;5069163;28;20028;-75
2022/09/02 02:21:06;;;;;;;4.43;3.25;;;;;;;;;;5069160;28;20024;-75
2022/09/02 02:23:32;;;;;;;5.68;3.17;;;;;;;;;;5071066;28;20025;-76
2022/09/02 02:25:58;;;;;;;4.18;3.13;;;;;;;;;;5071652;28;20040;-75
2022/09/02 02:28:25;;;;;;;6.63;3.38;;;;;;;;;;5065848;28;20025;-75
2022/09/02 02:30:51;;;;;;;7.13;3.75;;;;;;;;;;5062221;28;20063;-76
2022/09/02 02:33:17;;;;;;;3.72;3.13;;;;;;;;;;5072973;28;20069;-75
2022/09/02 02:35:44;;;;;;;6.50;3.63;;;;;;;;;;5069597;28;20070;-75
2022/09/02 02:38:10;;;;;;;5.55;3.50;;;;;;;;;;5065040;28;20050;-75
2022/09/02 02:40:37;;;;;;;6.72;3.42;;;;;;;;;;5071675;28;20021;-76
2022/09/02 02:43:03;;;;;;;3.72;2.88;;;;;;;;;;5072087;28;20036;-77
2022/09/02 02:45:29;;;;;;;5.60;3.58;;;;;;;;;;5071767;28;20056;-76
2022/09/02 02:47:55;;;;;;;6.75;4.07;;;;;;;;;;5071734;28;20054;-77
2022/09/02 02:50:23;;;;;;;9.52;4.30;;;;;;;;;;5064369;28;20044;-76
2022/09/02 02:52:49;;;;;;;7.80;3.60;;;;;;;;;;5077470;28;20037;-76
2022/09/02 02:55:16;;;;;;;5.00;3.53;;;;;;;;;;5069149;28;20682;-75
2022/09/02 02:57:43;;;;;;;5.35;3.28;;;;;;;;;;5065820;28;20024;-76
2022/09/02 03:00:11;;;;;;;5.88;3.90;;;;;;;;;;5069103;28;20028;-76
2022/09/02 03:02:37;;;;;;;5.95;3.60;;;;;;;;;;5065861;28;20028;-76
2022/09/02 03:05:04;;;;;;;5.13;3.67;;;;;;;;;;5066713;28;20084;-76
2022/09/02 03:07:30;;;;;;;7.30;3.80;;;;;;;;;;5066583;28;20448;-76
2022/09/02 03:09:56;;;;;;;6.10;3.35;;;;;;;;;;5072034;28;20021;-76
2022/09/02 03:12:23;;;;;;;4.75;4.18;;;;;;;;;;5072463;28;20021;-76
2022/09/02 03:14:49;;;;;;;6.15;3.72;;;;;;;;;;5062773;28;20025;-76
2022/09/02 03:17:15;;;;;;;3.92;3.28;;;;;;;;;;5060711;28;20029;-75
2022/09/02 03:19:41;;;;;;;5.80;3.47;;;;;;;;;;5060681;28;20069;-75
2022/09/02 03:22:09;;;;;;;4.65;3.45;;;;;;;;;;5068766;28;20469;-76
2022/09/02 03:24:37;;;;;;;6.03;3.75;;;;;;;;;;5063804;28;20119;-76
2022/09/02 03:27:04;;;;;;;5.10;3.70;;;;;;;;;;5067383;28;20040;-76
2022/09/02 03:29:30;;;;;;;7.65;3.75;;;;;;;;;;5070396;28;20021;-75
2022/09/02 03:31:56;;;;;;;6.10;3.78;;;;;;;;;;5064952;28;20032;-76
2022/09/02 03:34:22;;;;;;;4.57;3.33;;;;;;;;;;5068840;28;20479;-76
2022/09/02 03:36:48;;;;;;;3.63;2.85;;;;;;;;;;5065865;28;20029;-77
2022/09/02 03:39:14;;;;;;;3.85;3.45;;;;;;;;;;5070811;28;20013;-76
2022/09/02 03:41:41;;;;;;;12.77;4.25;;;;;;;;;;5068901;28;20021;-75
2022/09/02 03:44:08;;;;;;;5.05;3.63;;;;;;;;;;5061835;28;20393;-76
2022/09/02 03:46:34;;;;;;;3.95;3.47;;;;;;;;;;5067660;28;20047;-77
2022/09/02 03:49:01;;;;;;;5.22;3.65;;;;;;;;;;5069767;28;20119;-75
2022/09/02 03:51:27;;;;;;;5.30;4.07;;;;;;;;;;5070805;28;20104;-77
2022/09/02 03:53:53;;;;;;;5.43;3.90;;;;;;;;;;5072369;28;20025;-77
2022/09/02 03:56:20;;;;;;;3.97;3.50;;;;;;;;;;5067230;28;20109;-76
2022/09/02 03:58:47;;;;;;;6.35;4.07;;;;;;;;;;5069854;28;20028;-76
2022/09/02 04:01:17;;;;;;;5.65;3.08;;;;;;;;;;5069919;28;20082;-76
2022/09/02 04:03:43;;;;;;;4.28;3.58;;;;;;;;;;5070693;28;20032;-76
2022/09/02 04:06:11;;;;;;;5.60;3.67;;;;;;;;;;5070679;28;20548;-76
2022/09/02 04:08:38;;;;;;;9.23;4.15;;;;;;;;;;5066446;28;20033;-76
2022/09/02 04:11:08;;;;;;;5.93;3.60;;;;;;;;;;5068913;28;20028;-76
2022/09/02 04:13:35;;;;;;;4.55;3.53;;;;;;;;;;5065322;28;20033;-76
2022/09/02 04:16:05;;;;;;;8.15;4.13;;;;;;;;;;5071099;28;20074;-76
2022/09/02 04:18:31;;;;;;;4.28;3.60;;;;;;;;;;5059209;28;20029;-75
2022/09/02 04:20:59;;;;;;;8.30;4.55;;;;;;;;;;5070087;28;20060;-76
2022/09/02 04:23:25;;;;;;;6.00;3.60;;;;;;;;;;5069282;28;20106;-76
2022/09/02 04:25:51;;;;;;;4.97;4.07;;;;;;;;;;5068554;28;20028;-75
2022/09/02 04:28:17;;;;;;;6.55;4.10;;;;;;;;;;5067398;28;20040;-77
2022/09/02 04:30:44;;;;;;;5.93;4.20;;;;;;;;;;5068268;28;20029;-76
2022/09/02 04:33:12;;;;;;;5.50;4.30;;;;;;;;;;5081818;28;20032;-76
2022/09/02 04:35:42;;;;;;;5.80;4.13;;;;;;;;;;5070199;28;20131;-76
2022/09/02 04:38:08;;;;;;;5.00;3.92;;;;;;;;;;5069550;28;20032;-76
2022/09/02 04:40:34;;;;;;;6.45;4.05;;;;;;;;;;5069584;28;20369;-77
2022/09/02 04:43:01;;;;;;;6.18;4.28;;;;;;;;;;5065513;28;20020;-76
2022/09/02 04:45:27;;;;;;;4.63;3.67;;;;;;;;;;5069477;28;20059;-75
2022/09/02 04:47:53;;;;;;;5.68;3.83;;;;;;;;;;5064589;28;20020;-76
2022/09/02 04:50:19;;;;;;;4.18;3.63;;;;;;;;;;5065825;28;20115;-77
2022/09/02 04:52:45;;;;;;;5.35;4.00;;;;;;;;;;5067206;28;20033;-74
2022/09/02 04:55:11;;;;;;;8.00;4.30;;;;;;;;;;5070941;28;20073;-75
2022/09/02 04:57:38;;;;;;;7.40;4.40;;;;;;;;;;5067901;28;20435;-75
2022/09/02 05:00:06;;;;;;;6.22;4.22;;;;;;;;;;5084970;28;20036;-76
2022/09/02 05:02:32;;;;;;;5.72;4.45;;;;;;;;;;5067617;28;20059;-76
2022/09/02 05:04:58;;;;;;;6.47;4.53;;;;;;;;;;5060875;28;20029;-76
2022/09/02 05:07:24;;;;;;;5.03;4.05;;;;;;;;;;5072190;28;20033;-76
2022/09/02 05:09:55;;;;;;;7.50;3.92;;;;;;;;;;5065621;28;20541;-76
2022/09/02 05:12:26;;;;;;;5.40;3.75;;;;;;;;;;5069333;28;20025;-76
2022/09/02 05:14:53;;;;;;;5.53;3.97;;;;;;;;;;5066885;28;20071;-74
2022/09/02 05:17:19;;;;;;;6.97;4.22;;;;;;;;;;5065906;28;20023;-76
2022/09/02 05:19:45;;;;;;;6.80;4.28;;;;;;;;;;5068900;28;20024;-78
2022/09/02 05:22:11;;;;;;;6.20;4.45;;;;;;;;;;5069748;28;20453;-78
2022/09/02 05:24:37;;;;;;;6.28;4.38;;;;;;;;;;5061754;28;20033;-79
2022/09/02 05:27:04;;;;;;;4.53;3.70;;;;;;;;;;5069177;28;20028;-77
2022/09/02 05:29:30;;;;;;;6.40;4.60;;;;;;;;;;5059715;28;20035;-75
2022/09/02 05:31:56;;;;;;;8.63;4.40;;;;;;;;;;5060748;28;20032;-80
2022/09/02 05:34:22;;;;;;;10.93;4.97;;;;;;;;;;5071106;28;20024;-79
2022/09/02 05:36:48;;;;;;;5.32;4.18;;;;;;;;;;5067384;28;20489;-76
2022/09/02 05:39:14;;;;;;;10.45;4.40;;;;;;;;;;5070766;28;20495;-76
2022/09/02 05:41:41;;;;;;;7.28;4.13;;;;;;;;;;5070422;28;20045;-76
2022/09/02 05:44:07;;;;;;;4.75;4.05;;;;;;;;;;5064427;28;20107;-79
2022/09/02 05:46:34;;;;;;;7.53;5.03;;;;;;;;;;5067861;28;20036;-78
2022/09/02 05:49:11;;;;;;;5.28;4.50;;;;;;;;;;5071409;28;20028;-78
2022/09/02 05:51:42;;;;;;;5.22;4.00;;;;;;;;;;5069287;28;20053;-80
2022/09/02 05:54:15;;;;;;;7.07;4.07;;;;;;;;;;5069845;28;20496;-76
2022/09/02 05:56:43;;;;;;;7.35;4.72;;;;;;;;;;5069709;28;20461;-78
2022/09/02 05:59:09;;;;;;;8.05;4.28;;;;;;;;;;5072367;28;20032;-79
2022/09/02 06:01:36;;;;;;;4.55;3.92;;;;;;;;;;5075508;28;20031;-76
2022/09/02 06:04:03;;;;;;;4.75;4.03;;;;;;;;;;5072458;28;20124;-77
2022/09/02 06:06:30;;;;;;;5.43;4.57;;;;;;;;;;5064279;28;20021;-76
2022/09/02 06:08:57;;;;;;;6.90;4.32;;;;;;;;;;5061879;28;20135;-75
2022/09/02 06:11:24;;;;;;;7.68;4.78;;;;;;;;;;5073615;28;20021;-78
2022/09/02 06:13:51;;;;;;;7.72;4.18;;;;;;;;;;5070029;28;20037;-76
2022/09/02 06:16:18;;;;;;;7.50;5.18;;;;;;;;;;5063102;28;20439;-76
2022/09/02 06:18:45;;;;;;;10.07;4.20;;;;;;;;;;5071412;28;20036;-77
2022/09/02 06:21:12;;;;;;;5.03;4.25;;;;;;;;;;5073326;28;20037;-76
2022/09/02 06:23:39;;;;;;;8.52;4.38;;;;;;;;;;5058901;28;20023;-75
2022/09/02 06:26:09;;;;;;;8.65;4.78;;;;;;;;;;5074448;28;20036;-75
2022/09/02 06:28:37;;;;;;;6.72;4.22;;;;;;;;;;5061223;28;20729;-76
2022/09/02 06:31:07;;;;;;;5.53;4.22;;;;;;;;;;5073220;28;20420;-76
2022/09/02 06:33:33;;;;;;;5.80;5.05;;;;;;;;;;5070201;28;20100;-76
2022/09/02 06:36:00;;;;;;;7.40;4.13;;;;;;;;;;5070568;28;20024;-76
2022/09/02 06:38:26;;;;;;;6.03;4.22;;;;;;;;;;5072037;28;20024;-76
2022/09/02 06:40:53;;;;;;;7.70;4.38;;;;;;;;;;5071476;28;20473;-77
2022/09/02 06:43:19;;;;;;;9.65;4.38;;;;;;;;;;5072604;28;20060;-75
2022/09/02 06:45:46;;;;;;;5.75;4.68;;;;;;;;;;5067291;28;20483;-75
2022/09/02 06:48:13;;;;;;;10.90;4.57;;;;;;;;;;5071890;28;20048;-77
2022/09/02 06:50:43;;;;;;;8.88;5.68;;;;;;;;;;5070481;28;20040;-76
2022/09/02 06:53:10;;;;;;;7.35;4.35;;;;;;;;;;5070724;28;20491;-76
2022/09/02 06:55:37;;;;;;;5.22;4.18;;;;;;;;;;5072243;28;20025;-77
2022/09/02 06:58:04;;;;;;;6.82;4.63;;;;;;;;;;5068760;28;20031;-76
2022/09/02 07:00:30;;;;;;;8.65;4.70;;;;;;;;;;5077941;28;20549;-77
2022/09/02 07:05:42;;;;;;;10.60;5.35;;;;;;;;;;5069793;28;20128;-76
2022/09/02 07:08:08;;;;;;;12.13;4.63;;;;;;;;;;5070698;28;20056;-75
2022/09/02 07:10:41;;;;;;;11.68;5.65;;;;;;;;;;5081143;28;20489;-75
2022/09/02 07:13:08;;;;;;;11.25;4.90;;;;;;;;;;5087294;28;20124;-76
2022/09/02 07:15:34;;;;;;;10.73;5.00;;;;;;;;;;5069602;28;20044;-75
2022/09/02 07:18:00;;;;;;;7.95;5.47;;;;;;;;;;5068869;28;20044;-76
2022/09/02 07:20:27;;;;;;;7.38;4.43;;;;;;;;;;5067394;28;20036;-77
2022/09/02 07:22:54;;;;;;;8.63;4.82;;;;;;;;;;5070598;28;20017;-76
2022/09/02 07:25:21;;;;;;;8.30;4.20;;;;;;;;;;5070207;28;20541;-75
2022/09/02 07:27:50;;;;;;;7.82;5.18;;;;;;;;;;5070795;28;20017;-76
2022/09/02 07:30:16;;;;;;;6.20;4.55;;;;;;;;;;5070794;28;20035;-77
2022/09/02 07:32:42;;;;;;;8.40;4.95;;;;;;;;;;5068268;28;20487;-75
2022/09/02 07:35:08;;;;;;;12.65;4.95;;;;;;;;;;5071213;28;20032;-76
2022/09/02 07:37:34;;;;;;;9.00;4.85;;;;;;;;;;5070288;28;20526;-76
2022/09/02 07:40:02;;;;;;;8.60;3.92;;;;;;;;;;5069541;28;20033;-76
2022/09/02 07:42:28;;;;;;;9.30;5.10;;;;;;;;;;5069677;28;20025;-76
2022/09/02 07:44:55;;;;;;;7.18;4.93;;;;;;;;;;5067706;28;20024;-76
2022/09/02 07:47:21;;;;;;;12.45;5.45;;;;;;;;;;5070213;28;20111;-76
2022/09/02 07:49:47;;;;;;;10.80;4.72;;;;;;;;;;5066681;28;20056;-77
2022/09/02 07:52:13;;;;;;;7.13;4.18;;;;;;;;;;5081491;28;20044;-76
2022/09/02 07:54:39;;;;;;;7.57;4.10;;;;;;;;;;5068479;28;20668;-76
2022/09/02 07:57:06;;;;;;;6.63;4.20;;;;;;;;;;5070075;28;20085;-76
2022/09/02 07:59:32;;;;;;;6.22;4.53;;;;;;;;;;5067997;28;20031;-76
2022/09/02 08:01:58;;;;;;;7.28;4.60;;;;;;;;;;5071496;28;20068;-77
2022/09/02 08:04:26;;;;;;;9.18;5.00;;;;;;;;;;5069205;28;20109;-77
2022/09/02 08:06:53;;;;;;;9.50;4.97;;;;;;;;;;5064999;28;20432;-76
2022/09/02 08:09:20;;;;;;;11.18;5.03;;;;;;;;;;5072222;28;20036;-77
2022/09/02 08:11:47;;;;;;;7.55;4.97;;;;;;;;;;5078676;28;20048;-76
2022/09/02 08:14:16;;;;;;;7.35;4.85;;;;;;;;;;5073978;28;20404;-77
2022/09/02 08:16:42;;;;;;;7.63;5.38;;;;;;;;;;5070570;28;20146;-76
2022/09/02 08:19:11;;;;;;;7.18;5.50;;;;;;;;;;5072477;28;20125;-76
2022/09/02 08:21:40;;;;;;;8.23;5.07;;;;;;;;;;5072964;28;20066;-76
2022/09/02 08:24:09;;;;;;;10.55;5.43;;;;;;;;;;5079131;28;20060;-76
2022/09/02 08:26:36;;;;;;;10.48;5.30;;;;;;;;;;5075199;28;20048;-76
2022/09/02 08:29:09;;;;;;;6.78;4.85;;;;;;;;;;5078562;28;20085;-76
2022/09/02 08:31:38;;;;;;;8.98;5.28;;;;;;;;;;5076105;28;20028;-77
2022/09/02 08:34:08;;;;;;;6.05;4.30;;;;;;;;;;5063651;28;20062;-77
2022/09/02 08:36:34;;;;;;;7.28;5.22;;;;;;;;;;5073341;28;20066;-77
2022/09/02 08:39:01;;;;;;;8.82;4.70;;;;;;;;;;5080884;28;20050;-77
2022/09/02 08:41:32;;;;;;;7.68;4.53;;;;;;;;;;5074151;28;20036;-77
2022/09/02 08:44:00;;;;;;;9.77;5.97;;;;;;;;;;5081149;28;20024;-77
2022/09/02 08:46:27;;;;;;;8.10;4.95;;;;;;;;;;5086577;28;20036;-76
2022/09/02 08:48:53;;;;;;;9.40;5.55;;;;;;;;;;5075885;28;20066;-75
2022/09/02 08:51:22;;;;;;;8.52;5.53;;;;;;;;;;5074436;28;20145;-76
2022/09/02 08:53:51;;;;;;;7.82;5.15;;;;;;;;;;5079278;28;20044;-76
2022/09/02 08:56:18;;;;;;;11.43;5.30;;;;;;;;;;5078044;28;20069;-77
2022/09/02 08:58:46;;;;;;;10.15;5.53;;;;;;;;;;5077667;28;20424;-78
2022/09/02 09:01:18;;;;;;;7.43;5.13;;;;;;;;;;5074954;28;20029;-77
2022/09/02 09:03:50;;;;;;;6.13;5.05;;;;;;;;;;5076560;28;20513;-75
2022/09/02 09:06:28;;;;;;;8.88;5.28;;;;;;;;;;5074068;28;20044;-75
2022/09/02 09:09:20;;;;;;;11.32;4.82;;;;;;;;;;5072696;28;20032;-77
2022/09/02 09:11:50;;;;;;;8.38;5.05;;;;;;;;;;5063717;28;20488;-76
2022/09/02 09:14:42;;;;;;;10.05;5.38;;;;;;;;;;5079386;28;20488;-77
2022/09/02 09:17:13;;;;;;;7.43;4.82;;;;;;;;;;5075743;28;20060;-77
2022/09/02 09:20:01;;;;;;;11.52;5.03;;;;;;;;;;5077658;28;20508;-77
2022/09/02 09:22:36;;;;;;;9.40;5.20;;;;;;;;;;5076355;28;20082;-75
2022/09/02 09:25:05;;;;;;;6.47;4.82;;;;;;;;;;5070526;28;20036;-75
2022/09/02 09:27:31;;;;;;;8.63;5.13;;;;;;;;;;5077640;28;20554;-77
2022/09/02 09:29:57;;;;;;;9.63;4.82;;;;;;;;;;5082752;28;20119;-78
2022/09/02 09:32:34;;;;;;;7.13;4.85;;;;;;;;;;5080468;28;20028;-77
2022/09/02 09:35:01;;;;;;;6.70;4.38;;;;;;;;;;5085731;28;20028;-78
2022/09/02 09:37:32;;;;;;;8.45;4.78;;;;;;;;;;5084355;28;20013;-77
2022/09/02 09:39:58;;;;;;;7.70;4.40;;;;;;;;;;5085650;28;20031;-78
2022/09/02 09:42:32;;;;;;;9.23;4.88;;;;;;;;;;5087542;28;20048;-78
2022/09/02 09:44:58;;;;;;;9.75;4.72;;;;;;;;;;5085571;28;20078;-78
2022/09/02 09:47:25;;;;;;;11.18;5.13;;;;;;;;;;5087559;28;20063;-77
2022/09/02 09:49:52;;;;;;;8.88;4.20;;;;;;;;;;5087632;28;20555;-78
2022/09/02 09:52:25;;;;;;;7.40;3.95;;;;;;;;;;5085962;28;20048;-75
2022/09/02 09:55:10;;;;;;;6.68;3.58;;;;;;;;;;5083529;28;20051;-78
2022/09/02 09:57:37;;;;;;;4.25;3.83;;;;;;;;;;5087654;28;20428;-77
2022/09/02 10:00:11;;;;;;;5.68;3.50;;;;;;;;;;5086181;28;20689;-77
2022/09/02 10:02:46;;;;;;;4.00;3.58;;;;;;;;;;5102486;28;20027;-77
2022/09/02 10:05:18;;;;;;;7.20;3.92;;;;;;;;;;5085992;28;20435;-77
2022/09/02 10:07:52;;;;;;;7.68;3.72;;;;;;;;;;5082078;28;20056;-77
2022/09/02 10:10:20;;;;;;;5.87;4.03;;;;;;;;;;5088903;28;20024;-77
2022/09/02 10:12:47;;;;;;;7.00;3.20;;;;;;;;;;5080807;28;20358;-77
2022/09/02 10:15:13;;;;;;;5.57;3.33;;;;;;;;;;5085432;28;20016;-77
2022/09/02 10:17:45;;;;;;;5.13;3.30;;;;;;;;;;5085192;28;20503;-78
2022/09/02 10:20:11;;;;;;;4.68;3.45;;;;;;;;;;5086014;28;20020;-77
2022/09/02 10:22:44;;;;;;;8.60;3.42;;;;;;;;;;5081346;28;20379;-77
2022/09/02 10:25:17;;;;;;;5.93;3.53;;;;;;;;;;5085644;28;20114;-77
2022/09/02 10:28:03;;;;;;;8.20;4.18;;;;;;;;;;5086869;28;20077;-78
2022/09/02 10:30:32;;;;;;;4.50;3.38;;;;;;;;;;5085162;28;20032;-77
2022/09/02 10:33:11;;;;;;;6.35;3.97;;;;;;;;;;5083134;28;20412;-77
2022/09/02 10:35:40;;;;;;;4.93;3.58;;;;;;;;;;5084313;28;20024;-75
2022/09/02 10:38:09;;;;;;;5.88;3.40;;;;;;;;;;5084184;28;20107;-78
2022/09/02 10:40:43;;;;;;;5.25;3.10;;;;;;;;;;5085839;28;20723;-77
2022/09/02 10:43:18;;;;;;;6.28;4.07;;;;;;;;;;5072695;28;20043;-77
2022/09/02 10:45:45;;;;;;;6.55;3.40;;;;;;;;;;5087317;28;20016;-78
2022/09/02 10:48:38;;;;;;;12.32;3.92;;;;;;;;;;5087174;28;20037;-77
2022/09/02 10:51:29;;;;;;;3.50;3.08;;;;;;;;;;5056311;28;20055;-77
2022/09/02 10:53:59;;;;;;;5.28;3.17;;;;;;;;;;5090462;28;20108;-78
2022/09/02 10:56:29;;;;;;;7.68;4.28;;;;;;;;;;5086217;28;20099;-78
2022/09/02 10:59:04;;;;;;;5.88;3.38;;;;;;;;;;5085322;28;20111;-77
2022/09/02 11:01:33;;;;;;;6.63;3.50;;;;;;;;;;5093003;28;20016;-76
2022/09/02 11:04:07;;;;;;;5.47;3.65;;;;;;;;;;5085606;28;20005;-79
2022/09/02 11:06:40;;;;;;;7.47;3.30;;;;;;;;;;5091015;28;20012;-77
2022/09/02 11:09:14;;;;;;;7.38;3.22;;;;;;;;;;5085749;28;20047;-75
2022/09/02 11:11:54;;;;;;;7.53;3.40;;;;;;;;;;5086462;28;20008;-79
2022/09/02 11:14:35;;;;;;;8.70;3.15;;;;;;;;;;5085921;28;20028;-83
2022/09/02 11:17:13;;;;;;;4.55;2.90;;;;;;;;;;5091908;28;20025;-81
2022/09/02 11:19:46;;;;;;;5.22;2.72;;;;;;;;;;5088292;28;20024;-81
2022/09/02 11:22:19;;;;;;;7.60;3.28;;;;;;;;;;5102912;28;20027;-83
2022/09/02 11:25:11;;;;;;;5.97;3.00;;;;;;;;;;5087290;28;20028;-81
2022/09/02 11:27:37;;;;;;;9.88;2.85;;;;;;;;;;5068043;28;20029;-82
2022/09/02 11:30:07;;;;;;;5.50;2.90;;;;;;;;;;5087934;28;20027;-83
2022/09/02 11:32:43;;;;;;;3.90;2.90;;;;;;;;;;5084100;28;20043;-81
2022/09/02 11:35:13;;;;;;;4.97;2.97;;;;;;;;;;5087490;28;20038;-83
2022/09/02 11:37:42;;;;;;;6.45;3.28;;;;;;;;;;5088089;28;20040;-82
2022/09/02 11:40:20;;;;;;;5.80;3.63;;;;;;;;;;5088891;28;20019;-82
2022/09/02 11:42:57;;;;;;;6.30;3.70;;;;;;;;;;5086750;28;20138;-82
2022/09/02 11:45:32;;;;;;;6.45;3.78;;;;;;;;;;5090583;28;20044;-82
2022/09/02 11:48:10;;;;;;;8.73;3.50;;;;;;;;;;5087654;28;20643;-82
2022/09/02 11:50:42;;;;;;;10.65;3.55;;;;;;;;;;5084510;28;20032;-84
2022/09/02 11:53:11;;;;;;;5.47;3.65;;;;;;;;;;5090312;28;20017;-83
2022/09/02 11:55:55;;;;;;;3.83;2.60;;;;;;;;;;5085725;28;20064;-83
2022/09/02 11:58:40;;;;;;;6.18;2.88;;;;;;;;;;5088259;28;20115;-82
2022/09/02 12:01:28;;;;;;;4.00;2.47;;;;;;;;;;5083720;28;20039;-82
2022/09/02 12:04:13;;;;;;;5.40;2.85;;;;;;;;;;5083796;28;20031;-82
2022/09/02 12:06:58;;;;;;;5.50;3.03;;;;;;;;;;5090405;28;20028;-80
2022/09/02 12:09:43;;;;;;;5.53;3.20;;;;;;;;;;5085462;28;20056;-82
2022/09/02 12:12:30;;;;;;;6.18;2.95;;;;;;;;;;5091683;28;20032;-82
2022/09/02 12:14:56;;;;;;;3.30;2.50;;;;;;;;;;5086042;28;20060;-82
2022/09/02 12:17:36;;;;;;;5.05;2.60;;;;;;;;;;5090669;28;20035;-81
2022/09/02 12:20:04;;;;;;;5.45;2.83;;;;;;;;;;5084181;28;20028;-82
2022/09/02 12:22:37;;;;;;;6.07;3.03;;;;;;;;;;5102794;28;20020;-83
2022/09/02 12:25:04;;;;;;;5.43;2.67;;;;;;;;;;5085306;28;20046;-83
2022/09/02 12:27:37;;;;;;;5.85;3.85;;;;;;;;;;5086179;28;20012;-81
2022/09/02 12:30:08;;;;;;;3.45;2.53;;;;;;;;;;5084183;28;20043;-84
2022/09/02 12:32:49;;;;;;;3.35;2.40;;;;;;;;;;5086248;28;20481;-82
2022/09/02 12:35:34;;;;;;;4.05;2.40;;;;;;;;;;5086165;28;20031;-83
2022/09/02 12:38:09;;;;;;;3.85;2.70;;;;;;;;;;5088171;28;20493;-83
2022/09/02 12:40:41;;;;;;;5.45;3.25;;;;;;;;;;5084515;28;20028;-82
2022/09/02 12:43:19;;;;;;;3.67;2.38;;;;;;;;;;5084086;28;20046;-82
2022/09/02 12:45:46;;;;;;;6.15;2.60;;;;;;;;;;5082647;28;20024;-82
2022/09/02 12:48:16;;;;;;;4.20;2.60;;;;;;;;;;5092275;28;20020;-82
2022/09/02 12:50:58;;;;;;;4.07;2.30;;;;;;;;;;5089651;28;20044;-83
2022/09/02 12:53:30;;;;;;;7.25;3.00;;;;;;;;;;5090801;28;20039;-81
2022/09/02 12:56:03;;;;;;;4.05;2.53;;;;;;;;;;5085303;28;21151;-82
2022/09/02 12:58:34;;;;;;;4.07;2.60;;;;;;;;;;5087143;28;20017;-83
2022/09/02 13:01:12;;;;;;;4.22;2.60;;;;;;;;;;5086458;28;20087;-82
2022/09/02 13:03:38;;;;;;;3.42;2.72;;;;;;;;;;5086496;28;20028;-81
2022/09/02 13:06:11;;;;;;;5.53;2.90;;;;;;;;;;5086054;28;20034;-83
2022/09/02 13:08:46;;;;;;;4.90;3.03;;;;;;;;;;5094986;28;20032;-82
2022/09/02 13:11:31;;;;;;;5.57;2.85;;;;;;;;;;5089221;28;20039;-81
2022/09/02 13:14:16;;;;;;;5.40;2.80;;;;;;;;;;5084942;28;20115;-81
2022/09/02 13:16:48;;;;;;;3.88;2.67;;;;;;;;;;5083842;28;20028;-81
2022/09/02 13:19:23;;;;;;;3.47;2.58;;;;;;;;;;5088119;28;20023;-83
2022/09/02 13:22:05;;;;;;;5.22;2.63;;;;;;;;;;5084187;28;20037;-83
2022/09/02 13:24:32;;;;;;;5.53;2.90;;;;;;;;;;5087016;28;20016;-82
2022/09/02 13:26:59;;;;;;;4.95;3.00;;;;;;;;;;5086817;28;20019;-84
2022/09/02 13:29:25;;;;;;;4.95;3.00;;;;;;;;;;5086677;28;20028;-83
2022/09/02 13:32:10;;;;;;;6.32;2.70;;;;;;;;;;5089864;28;21297;-84
2022/09/02 13:34:43;;;;;;;4.05;3.22;;;;;;;;;;5088659;28;20041;-85
2022/09/02 13:37:28;;;;;;;5.32;3.53;;;;;;;;;;5100005;28;20024;-81
2022/09/02 13:39:54;;;;;;;3.17;2.58;;;;;;;;;;5083825;28;20036;-82
2022/09/02 13:42:26;;;;;;;5.75;2.90;;;;;;;;;;5085194;28;20074;-82
2022/09/02 13:45:08;;;;;;;6.13;3.00;;;;;;;;;;5086123;28;20492;-81
2022/09/02 13:47:35;;;;;;;4.43;2.63;;;;;;;;;;5082593;28;20031;-80
2022/09/02 13:50:01;;;;;;;5.80;3.13;;;;;;;;;;5087743;28;20095;-83
2022/09/02 13:52:29;;;;;;;4.85;2.70;;;;;;;;;;5089195;28;20052;-82
2022/09/02 13:54:57;;;;;;;3.50;2.60;;;;;;;;;;5082908;28;20063;-82
2022/09/02 13:57:24;;;;;;;4.90;3.22;;;;;;;;;;5085018;28;20025;-83
2022/09/02 13:59:51;;;;;;;10.82;4.15;;;;;;;;;;5088535;28;20058;-85
2022/09/02 14:02:38;;;;;;;6.38;3.83;;;;;;;;;;5088658;28;20020;-84
2022/09/02 14:05:15;;;;;;;4.53;3.05;;;;;;;;;;5081965;28;20024;-84
2022/09/02 14:07:43;;;;;;;4.65;2.90;;;;;;;;;;5094709;28;20033;-83
2022/09/02 14:10:10;;;;;;;5.75;3.80;;;;;;;;;;5099471;28;20052;-83
2022/09/02 14:12:38;;;;;;;3.15;2.83;;;;;;;;;;5082381;28;20020;-82
2022/09/02 14:15:05;;;;;;;4.20;3.40;;;;;;;;;;5083234;28;20087;-81
2022/09/02 14:17:33;;;;;;;6.20;3.60;;;;;;;;;;5087715;28;20025;-82
2022/09/02 14:20:19;;;;;;;6.63;3.47;;;;;;;;;;5086219;28;20020;-82
2022/09/02 14:22:53;;;;;;;5.28;3.10;;;;;;;;;;5090455;28;20039;-81
2022/09/02 14:25:20;;;;;;;6.90;2.87;;;;;;;;;;5090411;28;20031;-83
2022/09/02 14:27:50;;;;;;;4.57;2.85;;;;;;;;;;5089034;28;20791;-82
2022/09/02 14:30:26;;;;;;;3.83;2.90;;;;;;;;;;5086297;28;20024;-82
2022/09/02 14:33:12;;;;;;;7.28;3.20;;;;;;;;;;5097671;28;20098;-83
2022/09/02 14:35:39;;;;;;;6.63;3.47;;;;;;;;;;5089710;28;20055;-78
2022/09/02 14:38:25;;;;;;;3.90;2.90;;;;;;;;;;5086206;28;20023;-83
2022/09/02 14:40:50;;;;;;;;;;;;;;;;;;5088552;28;20426;-76
2022/09/02 14:43:17;;;;;;;8.70;4.13;;;;;;;;;;5088682;28;19908;-76
2022/09/02 14:45:45;;;;;;;6.57;3.10;;;;;;;;;;5084237;28;20037;-76
2022/09/02 14:48:31;;;;;;;8.00;3.13;;;;;;;;;;5083459;28;20020;-76
2022/09/02 14:51:02;;;;;;;4.63;3.10;;;;;;;;;;5076795;28;20142;-76
2022/09/02 14:53:28;;;;;;;3.85;2.97;;;;;;;;;;5084573;28;20044;-77
2022/09/02 14:55:55;;;;;;;5.63;2.80;;;;;;;;;;5082584;28;20024;-76
2022/09/02 14:58:23;;;;;;;6.95;3.17;;;;;;;;;;5084334;28;20029;-76
2022/09/02 15:00:53;;;;;;;4.88;3.25;;;;;;;;;;5085249;28;20046;-77